sensor_id;sensor_type;location;lat;lon;timestamp;P1;durP1;ratioP1;P2;durP2;ratioP2
53151;SDS011;39234;53.158;6.322;2022-12-22T00:01:16;76.47;;;31.45;;
53151;SDS011;39234;53.158;6.322;2022-12-22T00:04:00;68.47;;;31.52;;
53151;SDS011;39234;53.158;6.322;2022-12-22T00:06:44;79.90;;;31.63;;
53151;SDS011;39234;53.158;6.322;2022-12-22T00:09:29;87.28;;;32.92;;
53151;SDS011;39234;53.158;6.322;2022-12-22T00:12:14;79.82;;;31.73;;
53151;SDS011;39234;53.158;6.322;2022-12-22T00:15:00;92.93;;;33.30;;
53151;SDS011;39234;53.158;6.322;2022-12-22T00:17:46;86.95;;;33.97;;
53151;SDS011;39234;53.158;6.322;2022-12-22T00:20:30;97.05;;;36.20;;
53151;SDS011;39234;53.158;6.322;2022-12-22T00:23:14;98.40;;;36.30;;
53151;SDS011;39234;53.158;6.322;2022-12-22T00:25:59;103.82;;;37.03;;
53151;SDS011;39234;53.158;6.322;2022-12-22T00:28:43;89.05;;;33.78;;
53151;SDS011;39234;53.158;6.322;2022-12-22T00:31:28;101.07;;;36.03;;
53151;SDS011;39234;53.158;6.322;2022-12-22T00:34:16;108.60;;;38.63;;
53151;SDS011;39234;53.158;6.322;2022-12-22T00:37:02;115.28;;;40.00;;
53151;SDS011;39234;53.158;6.322;2022-12-22T00:39:47;108.03;;;38.97;;
53151;SDS011;39234;53.158;6.322;2022-12-22T00:42:32;113.30;;;39.38;;
53151;SDS011;39234;53.158;6.322;2022-12-22T00:45:17;106.57;;;38.55;;
53151;SDS011;39234;53.158;6.322;2022-12-22T00:48:02;112.05;;;40.53;;
53151;SDS011;39234;53.158;6.322;2022-12-22T00:50:46;115.85;;;39.72;;
53151;SDS011;39234;53.158;6.322;2022-12-22T00:53:31;99.80;;;38.08;;
53151;SDS011;39234;53.158;6.322;2022-12-22T00:56:15;101.55;;;38.78;;
53151;SDS011;39234;53.158;6.322;2022-12-22T00:59:00;100.15;;;38.95;;
53151;SDS011;39234;53.158;6.322;2022-12-22T01:01:45;107.35;;;40.05;;
53151;SDS011;39234;53.158;6.322;2022-12-22T01:04:29;112.95;;;41.63;;
53151;SDS011;39234;53.158;6.322;2022-12-22T01:07:14;104.82;;;41.38;;
53151;SDS011;39234;53.158;6.322;2022-12-22T01:10:11;112.22;;;41.28;;
53151;SDS011;39234;53.158;6.322;2022-12-22T01:12:57;111.85;;;41.85;;
53151;SDS011;39234;53.158;6.322;2022-12-22T01:15:42;100.88;;;39.67;;
53151;SDS011;39234;53.158;6.322;2022-12-22T01:18:26;99.90;;;39.42;;
53151;SDS011;39234;53.158;6.322;2022-12-22T01:21:11;101.20;;;39.83;;
53151;SDS011;39234;53.158;6.322;2022-12-22T01:23:55;103.40;;;41.28;;
53151;SDS011;39234;53.158;6.322;2022-12-22T01:26:40;103.05;;;41.05;;
53151;SDS011;39234;53.158;6.322;2022-12-22T01:29:24;111.70;;;42.38;;
53151;SDS011;39234;53.158;6.322;2022-12-22T01:32:12;101.38;;;41.30;;
53151;SDS011;39234;53.158;6.322;2022-12-22T01:34:57;96.05;;;39.17;;
53151;SDS011;39234;53.158;6.322;2022-12-22T01:37:42;115.50;;;41.70;;
53151;SDS011;39234;53.158;6.322;2022-12-22T01:40:26;122.30;;;43.92;;
53151;SDS011;39234;53.158;6.322;2022-12-22T01:43:18;112.13;;;40.60;;
53151;SDS011;39234;53.158;6.322;2022-12-22T01:49:26;110.88;;;40.40;;
53151;SDS011;39234;53.158;6.322;2022-12-22T01:52:25;118.20;;;42.22;;
53151;SDS011;39234;53.158;6.322;2022-12-22T01:55:16;135.00;;;44.00;;
53151;SDS011;39234;53.158;6.322;2022-12-22T01:58:05;127.10;;;45.45;;
53151;SDS011;39234;53.158;6.322;2022-12-22T02:00:59;132.43;;;43.50;;
53151;SDS011;39234;53.158;6.322;2022-12-22T02:03:43;141.18;;;44.22;;
53151;SDS011;39234;53.158;6.322;2022-12-22T02:06:32;146.82;;;45.47;;
53151;SDS011;39234;53.158;6.322;2022-12-22T02:13:14;148.80;;;45.88;;
53151;SDS011;39234;53.158;6.322;2022-12-22T02:16:17;139.17;;;44.00;;
53151;SDS011;39234;53.158;6.322;2022-12-22T02:25:17;158.43;;;47.30;;
53151;SDS011;39234;53.158;6.322;2022-12-22T02:28:08;184.20;;;49.40;;
53151;SDS011;39234;53.158;6.322;2022-12-22T02:30:55;122.07;;;44.17;;
53151;SDS011;39234;53.158;6.322;2022-12-22T02:33:40;163.25;;;48.30;;
53151;SDS011;39234;53.158;6.322;2022-12-22T02:36:32;167.43;;;47.90;;
53151;SDS011;39234;53.158;6.322;2022-12-22T02:43:10;158.82;;;45.63;;
53151;SDS011;39234;53.158;6.322;2022-12-22T02:46:28;140.02;;;43.83;;
53151;SDS011;39234;53.158;6.322;2022-12-22T02:49:20;107.38;;;40.40;;
53151;SDS011;39234;53.158;6.322;2022-12-22T02:52:18;111.50;;;38.65;;
53151;SDS011;39234;53.158;6.322;2022-12-22T02:55:09;126.90;;;42.72;;
53151;SDS011;39234;53.158;6.322;2022-12-22T02:57:56;113.30;;;38.55;;
53151;SDS011;39234;53.158;6.322;2022-12-22T03:00:42;113.43;;;41.65;;
53151;SDS011;39234;53.158;6.322;2022-12-22T03:03:26;107.50;;;39.22;;
53151;SDS011;39234;53.158;6.322;2022-12-22T03:06:10;119.82;;;41.40;;
53151;SDS011;39234;53.158;6.322;2022-12-22T03:08:54;139.25;;;42.17;;
53151;SDS011;39234;53.158;6.322;2022-12-22T03:11:39;122.05;;;42.22;;
53151;SDS011;39234;53.158;6.322;2022-12-22T03:14:23;136.02;;;43.00;;
53151;SDS011;39234;53.158;6.322;2022-12-22T03:17:07;123.13;;;40.40;;
53151;SDS011;39234;53.158;6.322;2022-12-22T03:19:52;150.88;;;42.40;;
53151;SDS011;39234;53.158;6.322;2022-12-22T03:22:36;122.22;;;39.80;;
53151;SDS011;39234;53.158;6.322;2022-12-22T03:25:21;153.57;;;44.15;;
53151;SDS011;39234;53.158;6.322;2022-12-22T03:28:06;117.60;;;40.20;;
53151;SDS011;39234;53.158;6.322;2022-12-22T03:30:32;144.93;;;44.20;;
53151;SDS011;39234;53.158;6.322;2022-12-22T03:32:59;179.05;;;47.58;;
53151;SDS011;39234;53.158;6.322;2022-12-22T03:35:25;138.43;;;43.65;;
53151;SDS011;39234;53.158;6.322;2022-12-22T03:37:52;180.45;;;46.30;;
53151;SDS011;39234;53.158;6.322;2022-12-22T03:40:17;209.10;;;50.22;;
53151;SDS011;39234;53.158;6.322;2022-12-22T03:42:43;193.82;;;48.00;;
53151;SDS011;39234;53.158;6.322;2022-12-22T03:45:27;200.43;;;47.53;;
53151;SDS011;39234;53.158;6.322;2022-12-22T03:48:12;174.30;;;44.67;;
53151;SDS011;39234;53.158;6.322;2022-12-22T03:50:37;212.32;;;47.20;;
53151;SDS011;39234;53.158;6.322;2022-12-22T03:53:03;212.38;;;48.63;;
53151;SDS011;39234;53.158;6.322;2022-12-22T03:55:29;182.55;;;46.30;;
53151;SDS011;39234;53.158;6.322;2022-12-22T03:57:55;188.70;;;44.33;;
53151;SDS011;39234;53.158;6.322;2022-12-22T04:00:21;172.20;;;43.55;;
53151;SDS011;39234;53.158;6.322;2022-12-22T04:02:47;190.15;;;45.72;;
53151;SDS011;39234;53.158;6.322;2022-12-22T04:05:12;152.52;;;42.05;;
53151;SDS011;39234;53.158;6.322;2022-12-22T04:07:38;173.10;;;41.08;;
53151;SDS011;39234;53.158;6.322;2022-12-22T04:10:04;224.80;;;46.55;;
53151;SDS011;39234;53.158;6.322;2022-12-22T04:12:52;212.80;;;45.10;;
53151;SDS011;39234;53.158;6.322;2022-12-22T04:15:21;204.88;;;45.47;;
53151;SDS011;39234;53.158;6.322;2022-12-22T04:17:50;247.05;;;47.20;;
53151;SDS011;39234;53.158;6.322;2022-12-22T04:20:16;152.55;;;40.40;;
53151;SDS011;39234;53.158;6.322;2022-12-22T04:22:43;205.35;;;42.80;;
53151;SDS011;39234;53.158;6.322;2022-12-22T04:25:09;187.43;;;42.10;;
53151;SDS011;39234;53.158;6.322;2022-12-22T04:27:35;187.98;;;41.03;;
53151;SDS011;39234;53.158;6.322;2022-12-22T04:30:01;191.18;;;42.25;;
53151;SDS011;39234;53.158;6.322;2022-12-22T04:32:27;193.88;;;42.33;;
53151;SDS011;39234;53.158;6.322;2022-12-22T04:34:53;209.07;;;43.85;;
53151;SDS011;39234;53.158;6.322;2022-12-22T04:37:18;254.82;;;45.58;;
53151;SDS011;39234;53.158;6.322;2022-12-22T04:39:44;182.95;;;39.63;;
53151;SDS011;39234;53.158;6.322;2022-12-22T04:42:10;147.23;;;38.97;;
53151;SDS011;39234;53.158;6.322;2022-12-22T04:44:35;199.50;;;43.20;;
53151;SDS011;39234;53.158;6.322;2022-12-22T04:47:01;147.88;;;37.75;;
53151;SDS011;39234;53.158;6.322;2022-12-22T04:49:27;162.27;;;38.85;;
53151;SDS011;39234;53.158;6.322;2022-12-22T04:51:52;143.10;;;37.15;;
53151;SDS011;39234;53.158;6.322;2022-12-22T04:54:18;166.77;;;39.50;;
53151;SDS011;39234;53.158;6.322;2022-12-22T04:56:44;141.88;;;37.60;;
53151;SDS011;39234;53.158;6.322;2022-12-22T04:59:10;143.75;;;39.22;;
53151;SDS011;39234;53.158;6.322;2022-12-22T05:01:35;151.65;;;38.58;;
53151;SDS011;39234;53.158;6.322;2022-12-22T05:04:01;150.32;;;38.88;;
53151;SDS011;39234;53.158;6.322;2022-12-22T05:06:27;140.73;;;36.97;;
53151;SDS011;39234;53.158;6.322;2022-12-22T05:08:52;157.45;;;37.50;;
53151;SDS011;39234;53.158;6.322;2022-12-22T05:11:18;146.15;;;37.50;;
53151;SDS011;39234;53.158;6.322;2022-12-22T05:13:44;155.02;;;36.72;;
53151;SDS011;39234;53.158;6.322;2022-12-22T05:16:11;123.32;;;34.20;;
53151;SDS011;39234;53.158;6.322;2022-12-22T05:18:39;140.63;;;37.55;;
53151;SDS011;39234;53.158;6.322;2022-12-22T05:21:10;122.75;;;34.97;;
53151;SDS011;39234;53.158;6.322;2022-12-22T05:23:41;105.32;;;32.33;;
53151;SDS011;39234;53.158;6.322;2022-12-22T05:26:07;112.28;;;34.10;;
53151;SDS011;39234;53.158;6.322;2022-12-22T05:28:33;115.72;;;33.08;;
53151;SDS011;39234;53.158;6.322;2022-12-22T05:31:05;125.97;;;33.63;;
53151;SDS011;39234;53.158;6.322;2022-12-22T05:33:33;116.03;;;33.58;;
53151;SDS011;39234;53.158;6.322;2022-12-22T05:35:59;120.68;;;33.70;;
53151;SDS011;39234;53.158;6.322;2022-12-22T05:38:25;129.60;;;34.80;;
53151;SDS011;39234;53.158;6.322;2022-12-22T05:40:50;120.90;;;32.95;;
53151;SDS011;39234;53.158;6.322;2022-12-22T05:43:16;115.10;;;33.33;;
53151;SDS011;39234;53.158;6.322;2022-12-22T05:45:45;123.10;;;32.83;;
53151;SDS011;39234;53.158;6.322;2022-12-22T05:48:11;130.32;;;33.03;;
53151;SDS011;39234;53.158;6.322;2022-12-22T05:50:37;148.23;;;34.67;;
53151;SDS011;39234;53.158;6.322;2022-12-22T05:53:04;166.80;;;38.92;;
53151;SDS011;39234;53.158;6.322;2022-12-22T05:55:31;175.70;;;38.20;;
53151;SDS011;39234;53.158;6.322;2022-12-22T05:57:57;150.45;;;36.50;;
53151;SDS011;39234;53.158;6.322;2022-12-22T06:00:26;168.10;;;37.47;;
53151;SDS011;39234;53.158;6.322;2022-12-22T06:02:52;130.15;;;33.70;;
53151;SDS011;39234;53.158;6.322;2022-12-22T06:05:18;165.77;;;37.75;;
53151;SDS011;39234;53.158;6.322;2022-12-22T06:07:44;191.60;;;39.67;;
53151;SDS011;39234;53.158;6.322;2022-12-22T06:10:10;173.60;;;37.35;;
53151;SDS011;39234;53.158;6.322;2022-12-22T06:12:36;177.95;;;40.10;;
53151;SDS011;39234;53.158;6.322;2022-12-22T06:15:02;167.18;;;37.20;;
53151;SDS011;39234;53.158;6.322;2022-12-22T06:17:28;175.27;;;37.85;;
53151;SDS011;39234;53.158;6.322;2022-12-22T06:19:54;159.65;;;35.95;;
53151;SDS011;39234;53.158;6.322;2022-12-22T06:22:20;186.20;;;37.28;;
53151;SDS011;39234;53.158;6.322;2022-12-22T06:24:45;186.25;;;37.78;;
53151;SDS011;39234;53.158;6.322;2022-12-22T06:27:11;165.00;;;35.80;;
53151;SDS011;39234;53.158;6.322;2022-12-22T06:29:37;157.50;;;35.13;;
53151;SDS011;39234;53.158;6.322;2022-12-22T06:32:02;158.65;;;35.63;;
53151;SDS011;39234;53.158;6.322;2022-12-22T06:34:28;151.88;;;33.65;;
53151;SDS011;39234;53.158;6.322;2022-12-22T06:36:54;177.05;;;35.92;;
53151;SDS011;39234;53.158;6.322;2022-12-22T06:39:20;156.38;;;32.67;;
53151;SDS011;39234;53.158;6.322;2022-12-22T06:41:46;169.32;;;34.22;;
53151;SDS011;39234;53.158;6.322;2022-12-22T06:44:30;165.20;;;32.72;;
53151;SDS011;39234;53.158;6.322;2022-12-22T06:46:56;120.75;;;29.10;;
53151;SDS011;39234;53.158;6.322;2022-12-22T06:49:21;102.90;;;26.75;;
53151;SDS011;39234;53.158;6.322;2022-12-22T06:51:47;104.05;;;26.90;;
53151;SDS011;39234;53.158;6.322;2022-12-22T06:54:13;94.05;;;25.80;;
53151;SDS011;39234;53.158;6.322;2022-12-22T06:56:39;106.70;;;26.90;;
53151;SDS011;39234;53.158;6.322;2022-12-22T06:59:05;88.32;;;23.45;;
53151;SDS011;39234;53.158;6.322;2022-12-22T07:01:31;67.50;;;23.63;;
53151;SDS011;39234;53.158;6.322;2022-12-22T07:03:56;79.65;;;21.67;;
53151;SDS011;39234;53.158;6.322;2022-12-22T07:06:22;88.63;;;22.42;;
53151;SDS011;39234;53.158;6.322;2022-12-22T07:08:48;85.28;;;21.65;;
53151;SDS011;39234;53.158;6.322;2022-12-22T07:11:14;97.68;;;23.58;;
53151;SDS011;39234;53.158;6.322;2022-12-22T07:13:40;84.85;;;25.23;;
53151;SDS011;39234;53.158;6.322;2022-12-22T07:16:07;93.80;;;31.63;;
53151;SDS011;39234;53.158;6.322;2022-12-22T07:18:36;92.22;;;34.40;;
53151;SDS011;39234;53.158;6.322;2022-12-22T07:21:03;102.15;;;38.90;;
53151;SDS011;39234;53.158;6.322;2022-12-22T07:23:31;111.68;;;44.40;;
53151;SDS011;39234;53.158;6.322;2022-12-22T07:25:57;119.85;;;42.80;;
53151;SDS011;39234;53.158;6.322;2022-12-22T07:28:23;115.93;;;43.88;;
53151;SDS011;39234;53.158;6.322;2022-12-22T07:30:49;99.35;;;40.63;;
53151;SDS011;39234;53.158;6.322;2022-12-22T07:33:15;132.38;;;48.17;;
53151;SDS011;39234;53.158;6.322;2022-12-22T07:35:41;149.90;;;53.70;;
53151;SDS011;39234;53.158;6.322;2022-12-22T07:38:07;154.10;;;56.83;;
53151;SDS011;39234;53.158;6.322;2022-12-22T07:40:32;139.63;;;50.08;;
53151;SDS011;39234;53.158;6.322;2022-12-22T07:42:59;150.93;;;55.05;;
53151;SDS011;39234;53.158;6.322;2022-12-22T07:45:25;209.00;;;64.45;;
53151;SDS011;39234;53.158;6.322;2022-12-22T07:47:57;176.45;;;65.18;;
53151;SDS011;39234;53.158;6.322;2022-12-22T07:50:23;145.35;;;57.50;;
53151;SDS011;39234;53.158;6.322;2022-12-22T07:52:50;134.63;;;50.05;;
53151;SDS011;39234;53.158;6.322;2022-12-22T07:55:17;156.88;;;50.38;;
53151;SDS011;39234;53.158;6.322;2022-12-22T07:57:43;172.00;;;50.65;;
53151;SDS011;39234;53.158;6.322;2022-12-22T08:00:09;163.70;;;34.72;;
53151;SDS011;39234;53.158;6.322;2022-12-22T08:02:35;183.70;;;31.15;;
53151;SDS011;39234;53.158;6.322;2022-12-22T08:05:01;155.65;;;28.13;;
53151;SDS011;39234;53.158;6.322;2022-12-22T08:07:27;178.60;;;26.33;;
53151;SDS011;39234;53.158;6.322;2022-12-22T08:09:53;129.55;;;25.38;;
53151;SDS011;39234;53.158;6.322;2022-12-22T08:12:18;244.90;;;25.27;;
53151;SDS011;39234;53.158;6.322;2022-12-22T08:14:44;269.75;;;27.20;;
53151;SDS011;39234;53.158;6.322;2022-12-22T08:17:11;333.92;;;26.08;;
53151;SDS011;39234;53.158;6.322;2022-12-22T08:19:36;314.60;;;25.23;;
53151;SDS011;39234;53.158;6.322;2022-12-22T08:22:02;167.60;;;20.02;;
53151;SDS011;39234;53.158;6.322;2022-12-22T08:24:28;226.32;;;24.30;;
53151;SDS011;39234;53.158;6.322;2022-12-22T08:26:55;126.90;;;20.10;;
53151;SDS011;39234;53.158;6.322;2022-12-22T08:29:30;178.88;;;21.38;;
53151;SDS011;39234;53.158;6.322;2022-12-22T08:31:59;157.10;;;22.92;;
53151;SDS011;39234;53.158;6.322;2022-12-22T08:34:25;228.60;;;24.05;;
53151;SDS011;39234;53.158;6.322;2022-12-22T08:36:52;139.15;;;18.33;;
53151;SDS011;39234;53.158;6.322;2022-12-22T08:39:21;117.18;;;17.20;;
53151;SDS011;39234;53.158;6.322;2022-12-22T08:41:49;150.02;;;17.15;;
53151;SDS011;39234;53.158;6.322;2022-12-22T08:44:25;203.80;;;18.02;;
53151;SDS011;39234;53.158;6.322;2022-12-22T08:46:53;171.90;;;17.27;;
53151;SDS011;39234;53.158;6.322;2022-12-22T08:49:21;144.10;;;17.48;;
53151;SDS011;39234;53.158;6.322;2022-12-22T08:51:47;133.48;;;19.10;;
53151;SDS011;39234;53.158;6.322;2022-12-22T08:54:13;89.80;;;14.80;;
53151;SDS011;39234;53.158;6.322;2022-12-22T08:56:41;104.80;;;14.80;;
53151;SDS011;39234;53.158;6.322;2022-12-22T08:59:07;86.57;;;15.60;;
53151;SDS011;39234;53.158;6.322;2022-12-22T09:01:37;109.35;;;15.85;;
53151;SDS011;39234;53.158;6.322;2022-12-22T09:04:06;96.82;;;16.00;;
53151;SDS011;39234;53.158;6.322;2022-12-22T09:06:32;81.00;;;15.00;;
53151;SDS011;39234;53.158;6.322;2022-12-22T09:08:59;86.68;;;15.52;;
53151;SDS011;39234;53.158;6.322;2022-12-22T09:11:27;93.82;;;15.77;;
53151;SDS011;39234;53.158;6.322;2022-12-22T09:13:55;94.50;;;16.38;;
53151;SDS011;39234;53.158;6.322;2022-12-22T09:16:23;74.07;;;14.57;;
53151;SDS011;39234;53.158;6.322;2022-12-22T09:18:49;65.55;;;13.88;;
53151;SDS011;39234;53.158;6.322;2022-12-22T09:21:15;65.75;;;13.30;;
53151;SDS011;39234;53.158;6.322;2022-12-22T09:23:41;58.22;;;14.05;;
53151;SDS011;39234;53.158;6.322;2022-12-22T09:26:11;112.80;;;16.58;;
53151;SDS011;39234;53.158;6.322;2022-12-22T09:28:38;80.82;;;15.77;;
53151;SDS011;39234;53.158;6.322;2022-12-22T09:31:04;86.20;;;15.95;;
53151;SDS011;39234;53.158;6.322;2022-12-22T09:33:31;80.00;;;14.75;;
53151;SDS011;39234;53.158;6.322;2022-12-22T09:35:57;44.88;;;13.20;;
53151;SDS011;39234;53.158;6.322;2022-12-22T09:38:27;86.28;;;15.15;;
53151;SDS011;39234;53.158;6.322;2022-12-22T09:40:55;64.28;;;13.55;;
53151;SDS011;39234;53.158;6.322;2022-12-22T09:43:22;72.30;;;14.00;;
53151;SDS011;39234;53.158;6.322;2022-12-22T09:45:52;78.40;;;14.43;;
53151;SDS011;39234;53.158;6.322;2022-12-22T09:48:18;74.15;;;15.32;;
53151;SDS011;39234;53.158;6.322;2022-12-22T09:50:46;62.78;;;14.98;;
53151;SDS011;39234;53.158;6.322;2022-12-22T09:53:19;64.75;;;15.45;;
53151;SDS011;39234;53.158;6.322;2022-12-22T09:55:47;48.78;;;14.45;;
53151;SDS011;39234;53.158;6.322;2022-12-22T09:58:27;71.40;;;16.10;;
53151;SDS011;39234;53.158;6.322;2022-12-22T10:03:52;66.18;;;16.20;;
53151;SDS011;39234;53.158;6.322;2022-12-22T10:06:42;55.97;;;15.52;;
53151;SDS011;39234;53.158;6.322;2022-12-22T10:09:16;50.33;;;14.82;;
53151;SDS011;39234;53.158;6.322;2022-12-22T10:14:16;53.55;;;15.27;;
53151;SDS011;39234;53.158;6.322;2022-12-22T10:16:42;37.17;;;14.27;;
53151;SDS011;39234;53.158;6.322;2022-12-22T10:19:11;34.22;;;13.10;;
53151;SDS011;39234;53.158;6.322;2022-12-22T10:21:38;27.48;;;11.32;;
53151;SDS011;39234;53.158;6.322;2022-12-22T10:24:20;26.73;;;12.35;;
53151;SDS011;39234;53.158;6.322;2022-12-22T10:26:55;27.42;;;12.30;;
53151;SDS011;39234;53.158;6.322;2022-12-22T10:29:22;27.42;;;12.05;;
53151;SDS011;39234;53.158;6.322;2022-12-22T10:32:01;25.48;;;10.32;;
53151;SDS011;39234;53.158;6.322;2022-12-22T10:34:29;25.13;;;10.85;;
53151;SDS011;39234;53.158;6.322;2022-12-22T10:36:56;26.92;;;10.80;;
53151;SDS011;39234;53.158;6.322;2022-12-22T10:39:26;23.33;;;10.63;;
53151;SDS011;39234;53.158;6.322;2022-12-22T10:41:56;23.23;;;10.07;;
53151;SDS011;39234;53.158;6.322;2022-12-22T10:44:29;26.83;;;10.07;;
53151;SDS011;39234;53.158;6.322;2022-12-22T10:46:59;20.63;;;9.10;;
53151;SDS011;39234;53.158;6.322;2022-12-22T10:49:37;20.95;;;8.13;;
53151;SDS011;39234;53.158;6.322;2022-12-22T10:52:11;19.65;;;8.93;;
53151;SDS011;39234;53.158;6.322;2022-12-22T10:54:38;21.42;;;9.05;;
53151;SDS011;39234;53.158;6.322;2022-12-22T10:59:47;19.17;;;7.50;;
53151;SDS011;39234;53.158;6.322;2022-12-22T11:04:49;15.73;;;6.95;;
53151;SDS011;39234;53.158;6.322;2022-12-22T11:07:16;13.45;;;6.47;;
53151;SDS011;39234;53.158;6.322;2022-12-22T11:09:42;12.98;;;6.13;;
53151;SDS011;39234;53.158;6.322;2022-12-22T11:18:13;16.30;;;6.20;;
53151;SDS011;39234;53.158;6.322;2022-12-22T11:21:10;18.13;;;6.00;;
53151;SDS011;39234;53.158;6.322;2022-12-22T11:26:39;18.55;;;6.72;;
53151;SDS011;39234;53.158;6.322;2022-12-22T11:29:23;14.10;;;6.20;;
53151;SDS011;39234;53.158;6.322;2022-12-22T11:40:07;20.10;;;5.85;;
53151;SDS011;39234;53.158;6.322;2022-12-22T11:48:28;17.33;;;6.00;;
53151;SDS011;39234;53.158;6.322;2022-12-22T11:53:55;14.40;;;4.47;;
53151;SDS011;39234;53.158;6.322;2022-12-22T12:09:45;17.02;;;3.63;;
53151;SDS011;39234;53.158;6.322;2022-12-22T12:21:23;14.15;;;3.85;;
53151;SDS011;39234;53.158;6.322;2022-12-22T12:29:45;15.38;;;3.47;;
53151;SDS011;39234;53.158;6.322;2022-12-22T12:32:37;16.55;;;3.85;;
53151;SDS011;39234;53.158;6.322;2022-12-22T12:38:00;13.75;;;4.47;;
53151;SDS011;39234;53.158;6.322;2022-12-22T12:43:35;13.75;;;3.63;;
53151;SDS011;39234;53.158;6.322;2022-12-22T12:46:33;12.77;;;3.90;;
53151;SDS011;39234;53.158;6.322;2022-12-22T12:52:06;15.85;;;4.28;;
53151;SDS011;39234;53.158;6.322;2022-12-22T12:54:34;15.40;;;3.45;;
53151;SDS011;39234;53.158;6.322;2022-12-22T12:59:55;11.52;;;4.10;;
53151;SDS011;39234;53.158;6.322;2022-12-22T13:02:31;15.63;;;3.95;;
53151;SDS011;39234;53.158;6.322;2022-12-22T13:10:31;16.38;;;3.78;;
53151;SDS011;39234;53.158;6.322;2022-12-22T13:13:02;18.88;;;4.18;;
53151;SDS011;39234;53.158;6.322;2022-12-22T13:17:59;15.55;;;3.53;;
53151;SDS011;39234;53.158;6.322;2022-12-22T13:20:33;14.35;;;3.88;;
53151;SDS011;39234;53.158;6.322;2022-12-22T13:23:01;17.13;;;3.85;;
53151;SDS011;39234;53.158;6.322;2022-12-22T13:25:55;14.80;;;3.88;;
53151;SDS011;39234;53.158;6.322;2022-12-22T13:28:20;14.35;;;4.47;;
53151;SDS011;39234;53.158;6.322;2022-12-22T13:30:48;14.95;;;3.33;;
53151;SDS011;39234;53.158;6.322;2022-12-22T13:33:23;15.02;;;3.90;;
53151;SDS011;39234;53.158;6.322;2022-12-22T13:35:52;13.75;;;3.70;;
53151;SDS011;39234;53.158;6.322;2022-12-22T13:38:34;20.33;;;4.07;;
53151;SDS011;39234;53.158;6.322;2022-12-22T13:41:02;17.08;;;3.72;;
53151;SDS011;39234;53.158;6.322;2022-12-22T13:43:36;12.77;;;3.78;;
53151;SDS011;39234;53.158;6.322;2022-12-22T13:46:03;19.45;;;4.43;;
53151;SDS011;39234;53.158;6.322;2022-12-22T13:48:33;14.90;;;3.95;;
53151;SDS011;39234;53.158;6.322;2022-12-22T13:51:27;23.50;;;4.57;;
53151;SDS011;39234;53.158;6.322;2022-12-22T13:53:53;39.72;;;5.43;;
53151;SDS011;39234;53.158;6.322;2022-12-22T13:56:38;20.00;;;4.22;;
53151;SDS011;39234;53.158;6.322;2022-12-22T14:01:48;34.83;;;5.50;;
53151;SDS011;39234;53.158;6.322;2022-12-22T14:04:14;25.15;;;4.30;;
53151;SDS011;39234;53.158;6.322;2022-12-22T14:06:40;20.08;;;4.40;;
53151;SDS011;39234;53.158;6.322;2022-12-22T14:11:49;17.15;;;4.43;;
53151;SDS011;39234;53.158;6.322;2022-12-22T14:14:23;18.33;;;3.38;;
53151;SDS011;39234;53.158;6.322;2022-12-22T14:16:56;9.15;;;3.30;;
53151;SDS011;39234;53.158;6.322;2022-12-22T14:19:24;19.73;;;3.78;;
53151;SDS011;39234;53.158;6.322;2022-12-22T14:22:02;9.65;;;3.20;;
53151;SDS011;39234;53.158;6.322;2022-12-22T14:24:42;14.55;;;2.92;;
53151;SDS011;39234;53.158;6.322;2022-12-22T14:27:15;25.13;;;3.75;;
53151;SDS011;39234;53.158;6.322;2022-12-22T14:30:01;16.55;;;3.38;;
53151;SDS011;39234;53.158;6.322;2022-12-22T14:32:36;19.02;;;4.22;;
53151;SDS011;39234;53.158;6.322;2022-12-22T14:35:14;18.30;;;3.42;;
53151;SDS011;39234;53.158;6.322;2022-12-22T14:37:43;24.00;;;4.50;;
53151;SDS011;39234;53.158;6.322;2022-12-22T14:42:54;20.20;;;3.42;;
53151;SDS011;39234;53.158;6.322;2022-12-22T14:45:22;17.40;;;2.92;;
53151;SDS011;39234;53.158;6.322;2022-12-22T14:47:48;11.50;;;2.60;;
53151;SDS011;39234;53.158;6.322;2022-12-22T15:00:43;11.82;;;2.60;;
53151;SDS011;39234;53.158;6.322;2022-12-22T15:05:56;10.35;;;2.70;;
53151;SDS011;39234;53.158;6.322;2022-12-22T15:09:33;15.73;;;3.13;;
53151;SDS011;39234;53.158;6.322;2022-12-22T15:11:43;11.40;;;2.80;;
53151;SDS011;39234;53.158;6.322;2022-12-22T15:14:12;13.15;;;3.15;;
53151;SDS011;39234;53.158;6.322;2022-12-22T15:16:41;15.38;;;3.05;;
53151;SDS011;39234;53.158;6.322;2022-12-22T15:19:10;12.60;;;3.17;;
53151;SDS011;39234;53.158;6.322;2022-12-22T15:21:38;14.57;;;2.88;;
53151;SDS011;39234;53.158;6.322;2022-12-22T15:24:08;11.07;;;2.58;;
53151;SDS011;39234;53.158;6.322;2022-12-22T15:26:36;16.73;;;3.15;;
53151;SDS011;39234;53.158;6.322;2022-12-22T15:29:02;14.20;;;3.70;;
53151;SDS011;39234;53.158;6.322;2022-12-22T15:31:28;16.75;;;4.20;;
53151;SDS011;39234;53.158;6.322;2022-12-22T15:33:53;9.35;;;3.55;;
53151;SDS011;39234;53.158;6.322;2022-12-22T15:36:23;13.82;;;4.22;;
53151;SDS011;39234;53.158;6.322;2022-12-22T15:38:48;12.50;;;4.40;;
53151;SDS011;39234;53.158;6.322;2022-12-22T15:41:15;11.88;;;3.85;;
53151;SDS011;39234;53.158;6.322;2022-12-22T15:43:41;9.88;;;4.25;;
53151;SDS011;39234;53.158;6.322;2022-12-22T15:46:06;13.73;;;4.72;;
53151;SDS011;39234;53.158;6.322;2022-12-22T15:48:38;20.13;;;5.07;;
53151;SDS011;39234;53.158;6.322;2022-12-22T15:51:04;14.18;;;4.93;;
53151;SDS011;39234;53.158;6.322;2022-12-22T15:53:33;14.75;;;4.97;;
53151;SDS011;39234;53.158;6.322;2022-12-22T15:56:00;13.25;;;4.35;;
53151;SDS011;39234;53.158;6.322;2022-12-22T15:58:30;14.68;;;5.60;;
53151;SDS011;39234;53.158;6.322;2022-12-22T16:00:59;17.40;;;5.53;;
53151;SDS011;39234;53.158;6.322;2022-12-22T16:03:25;15.73;;;5.80;;
53151;SDS011;39234;53.158;6.322;2022-12-22T16:05:50;20.63;;;6.43;;
53151;SDS011;39234;53.158;6.322;2022-12-22T16:08:18;25.02;;;8.15;;
53151;SDS011;39234;53.158;6.322;2022-12-22T16:10:50;15.25;;;6.68;;
53151;SDS011;39234;53.158;6.322;2022-12-22T16:13:15;16.88;;;6.03;;
53151;SDS011;39234;53.158;6.322;2022-12-22T16:15:43;11.90;;;5.90;;
53151;SDS011;39234;53.158;6.322;2022-12-22T16:18:09;11.27;;;5.35;;
53151;SDS011;39234;53.158;6.322;2022-12-22T16:20:38;14.60;;;6.75;;
53151;SDS011;39234;53.158;6.322;2022-12-22T16:23:06;16.63;;;5.60;;
53151;SDS011;39234;53.158;6.322;2022-12-22T16:25:40;14.85;;;6.10;;
53151;SDS011;39234;53.158;6.322;2022-12-22T16:28:09;13.40;;;5.78;;
53151;SDS011;39234;53.158;6.322;2022-12-22T16:30:41;19.05;;;6.28;;
53151;SDS011;39234;53.158;6.322;2022-12-22T16:33:09;11.50;;;6.53;;
53151;SDS011;39234;53.158;6.322;2022-12-22T16:35:36;12.52;;;5.60;;
53151;SDS011;39234;53.158;6.322;2022-12-22T16:38:01;14.05;;;6.28;;
53151;SDS011;39234;53.158;6.322;2022-12-22T16:40:28;13.63;;;6.05;;
53151;SDS011;39234;53.158;6.322;2022-12-22T16:45:25;16.60;;;7.32;;
53151;SDS011;39234;53.158;6.322;2022-12-22T16:47:52;20.33;;;9.40;;
53151;SDS011;39234;53.158;6.322;2022-12-22T16:50:25;24.63;;;13.38;;
53151;SDS011;39234;53.158;6.322;2022-12-22T16:52:57;24.98;;;14.05;;
53151;SDS011;39234;53.158;6.322;2022-12-22T16:55:28;24.02;;;16.52;;